Time;durP1;ratioP1;P1;durP2;ratioP2;P2;SDS_P1;SDS_P2;PMS_P1;PMS_P2;Temp;Humidity;BMP_temperature;BMP_pressure;BME280_temperature;BME280_humidity;BME280_pressure;Samples;Min_cycle;Max_cycle;Signal;HPM_P1;HPM_P2
2023/12/11 00:00:28;;;;;;;36.85;4.18;;;10.10;99.90;;;;;;4953682;28;20070;-73
2023/12/11 00:02:55;;;;;;;26.60;3.13;;;9.20;99.90;;;;;;4938039;28;20042;-73
2023/12/11 00:05:21;;;;;;;33.67;3.90;;;10.00;99.90;;;;;;4954014;28;20047;-72
2023/12/11 00:07:47;;;;;;;35.60;3.90;;;9.40;99.90;;;;;;4938037;28;20105;-72
2023/12/11 00:10:13;;;;;;;29.65;3.30;;;9.30;99.90;;;;;;4953802;28;20047;-72
2023/12/11 00:12:39;;;;;;;40.03;4.60;;;10.10;99.90;;;;;;4937728;28;20137;-71
2023/12/11 00:15:06;;;;;;;33.83;3.70;;;9.80;99.90;;;;;;4953578;28;20050;-72
2023/12/11 00:17:31;;;;;;;33.42;4.05;;;9.90;99.90;;;;;;4921980;28;20060;-73
2023/12/11 00:19:57;;;;;;;24.42;2.75;;;9.60;99.90;;;;;;4938012;28;20059;-72
2023/12/11 00:22:23;;;;;;;44.30;4.72;;;10.00;99.90;;;;;;4953907;28;20041;-72
2023/12/11 00:24:49;;;;;;;36.88;4.78;;;10.10;99.90;;;;;;4953612;28;20054;-71
2023/12/11 00:27:14;;;;;;;31.95;4.03;;;9.60;99.90;;;;;;4938312;28;20049;-72
2023/12/11 00:29:40;;;;;;;45.95;4.55;;;9.80;99.90;;;;;;4953551;28;20054;-71
2023/12/11 00:32:06;;;;;;;38.03;4.68;;;9.30;99.90;;;;;;4953705;28;20065;-72
2023/12/11 00:34:32;;;;;;;36.75;4.45;;;9.40;99.90;;;;;;4936626;28;20528;-72
2023/12/11 00:36:59;;;;;;;38.38;3.92;;;9.70;99.90;;;;;;4936652;28;20043;-71
2023/12/11 00:39:24;;;;;;;42.22;4.38;;;8.90;99.90;;;;;;4953068;28;20039;-72
2023/12/11 00:41:50;;;;;;;32.75;4.30;;;9.00;99.90;;;;;;4954379;28;20473;-72
2023/12/11 00:44:16;;;;;;;35.33;4.43;;;9.00;99.90;;;;;;4936301;28;20447;-71
2023/12/11 00:46:42;;;;;;;43.33;5.32;;;9.10;99.90;;;;;;4936824;28;20047;-71
2023/12/11 00:49:08;;;;;;;42.80;5.15;;;9.40;99.90;;;;;;4920829;28;20111;-72
2023/12/11 00:51:34;;;;;;;51.42;6.32;;;9.30;99.90;;;;;;4952364;28;20092;-72
2023/12/11 00:54:00;;;;;;;40.15;4.90;;;9.20;99.90;;;;;;4952597;28;20217;-72
2023/12/11 00:56:26;;;;;;;31.02;4.45;;;9.40;99.90;;;;;;4939649;28;20535;-72
2023/12/11 00:58:51;;;;;;;42.88;5.15;;;8.60;99.90;;;;;;4937140;28;20089;-72
2023/12/11 01:01:17;;;;;;;45.17;5.43;;;9.10;99.90;;;;;;4936566;28;20379;-72
2023/12/11 01:03:43;;;;;;;34.90;4.47;;;9.50;99.90;;;;;;4952599;28;20058;-72
2023/12/11 01:06:09;;;;;;;46.72;5.78;;;8.80;99.90;;;;;;4952731;28;20043;-72
2023/12/11 01:08:38;;;;;;;45.45;5.88;;;8.70;99.90;;;;;;4952483;28;20101;-72
2023/12/11 01:11:05;;;;;;;44.40;4.95;;;9.50;99.90;;;;;;4953040;28;20517;-72
2023/12/11 01:13:31;;;;;;;40.75;5.35;;;8.90;99.90;;;;;;4952725;28;20707;-72
2023/12/11 01:15:57;;;;;;;44.72;5.90;;;9.30;99.90;;;;;;4951633;28;20154;-72
2023/12/11 01:18:23;;;;;;;50.38;5.55;;;9.50;99.90;;;;;;4935922;28;20065;-72
2023/12/11 01:20:51;;;;;;;40.55;5.47;;;9.30;99.90;;;;;;4952469;28;20293;-72
2023/12/11 01:23:18;;;;;;;54.80;6.18;;;9.40;99.90;;;;;;4920468;28;20229;-72
2023/12/11 01:25:44;;;;;;;39.35;5.15;;;9.50;99.90;;;;;;4936182;28;20118;-72
2023/12/11 01:28:09;;;;;;;58.38;7.00;;;8.70;99.90;;;;;;4920421;28;20069;-72
2023/12/11 01:30:35;;;;;;;51.70;7.15;;;9.10;99.90;;;;;;4936211;28;20050;-72
2023/12/11 01:33:03;;;;;;;57.00;6.70;;;9.50;99.90;;;;;;4952057;28;20311;-72
2023/12/11 01:35:29;;;;;;;54.63;6.07;;;8.70;99.90;;;;;;4952431;28;20343;-73
2023/12/11 01:37:54;;;;;;;46.55;6.10;;;9.00;99.90;;;;;;4952354;28;20696;-72
2023/12/11 01:40:20;;;;;;;44.22;5.85;;;8.80;99.90;;;;;;4935917;28;20047;-72
2023/12/11 01:42:46;;;;;;;50.30;6.10;;;9.50;99.90;;;;;;4936104;28;20129;-72
2023/12/11 01:45:12;;;;;;;52.63;5.85;;;9.10;99.90;;;;;;4935213;28;20100;-71
2023/12/11 01:47:38;;;;;;;58.47;5.95;;;9.50;99.90;;;;;;4935121;28;20303;-72
2023/12/11 01:50:06;;;;;;;56.38;6.47;;;9.50;99.90;;;;;;4935286;28;20034;-72
2023/12/11 01:52:32;;;;;;;51.78;6.30;;;9.50;99.90;;;;;;4951091;28;20046;-72
2023/12/11 01:54:58;;;;;;;53.63;6.70;;;9.10;99.90;;;;;;4935516;28;20043;-73
2023/12/11 01:57:24;;;;;;;58.75;6.90;;;9.00;99.90;;;;;;4951310;28;20978;-72
2023/12/11 01:59:50;;;;;;;52.70;6.25;;;8.90;99.90;;;;;;4918872;28;20219;-73
2023/12/11 02:02:16;;;;;;;44.42;5.55;;;9.00;99.90;;;;;;4950893;28;20039;-73
2023/12/11 02:04:42;;;;;;;49.50;7.03;;;9.60;99.90;;;;;;4934780;28;20050;-72
2023/12/11 02:07:08;;;;;;;47.85;6.43;;;9.00;99.90;;;;;;4951535;28;20430;-73
2023/12/11 02:09:34;;;;;;;48.90;5.97;;;9.20;99.90;;;;;;4935245;28;20349;-72
2023/12/11 02:12:00;;;;;;;46.42;6.07;;;9.10;99.90;;;;;;4934905;28;20047;-73
2023/12/11 02:14:25;;;;;;;45.75;5.30;;;9.40;99.90;;;;;;4950847;28;20046;-72
2023/12/11 02:16:51;;;;;;;53.40;6.85;;;9.10;99.90;;;;;;4950638;28;20137;-73
2023/12/11 02:19:17;;;;;;;56.85;6.93;;;9.40;99.90;;;;;;4935418;28;20187;-72
2023/12/11 02:21:43;;;;;;;45.78;6.07;;;9.40;99.90;;;;;;4935365;28;20524;-73
2023/12/11 02:24:14;;;;;;;48.78;5.68;;;8.90;99.90;;;;;;4957063;28;20062;-72
2023/12/11 02:26:40;;;;;;;47.58;5.88;;;9.00;99.90;;;;;;4951030;28;20047;-72
2023/12/11 02:29:06;;;;;;;45.95;5.63;;;8.90;99.90;;;;;;4951059;28;20042;-72
2023/12/11 02:31:32;;;;;;;52.20;6.28;;;9.40;99.90;;;;;;4950818;28;20488;-72
2023/12/11 02:33:57;;;;;;;46.88;5.65;;;9.10;99.90;;;;;;4935157;28;20394;-72
2023/12/11 02:36:23;;;;;;;45.08;5.35;;;9.00;99.90;;;;;;4950466;28;20038;-71
2023/12/11 02:38:49;;;;;;;53.67;6.25;;;9.50;99.90;;;;;;4934363;28;20112;-71
2023/12/11 02:41:15;;;;;;;48.20;5.68;;;9.60;99.90;;;;;;4950637;28;20042;-72
2023/12/11 02:43:41;;;;;;;40.50;4.88;;;9.60;99.90;;;;;;4950408;28;20043;-71
2023/12/11 02:46:07;;;;;;;46.00;4.93;;;9.30;99.90;;;;;;4934702;28;20034;-72
2023/12/11 02:48:32;;;;;;;44.15;5.50;;;9.60;99.90;;;;;;4950671;28;20400;-71
2023/12/11 02:50:58;;;;;;;43.33;5.07;;;8.70;99.90;;;;;;4950372;28;20058;-72
2023/12/11 02:53:24;;;;;;;45.95;5.55;;;8.70;99.90;;;;;;4951106;28;20309;-71
2023/12/11 02:55:50;;;;;;;49.25;5.25;;;8.70;99.90;;;;;;4934473;28;20556;-71
2023/12/11 02:58:15;;;;;;;47.70;6.00;;;9.00;99.90;;;;;;4951808;28;20117;-71
2023/12/11 03:00:41;;;;;;;43.95;5.53;;;9.50;99.90;;;;;;4954337;28;20038;-71
2023/12/11 03:03:10;;;;;;;38.25;5.00;;;8.70;99.90;;;;;;4954479;28;20035;-70
2023/12/11 03:05:36;;;;;;;60.28;5.50;;;8.60;99.90;;;;;;4954451;28;20132;-72
2023/12/11 03:08:05;;;;;;;40.25;4.95;;;8.80;99.90;;;;;;4986398;28;20117;-71
2023/12/11 03:10:32;;;;;;;54.03;5.90;;;9.30;99.90;;;;;;4942358;28;20414;-71
2023/12/11 03:12:58;;;;;;;55.22;6.55;;;8.80;99.90;;;;;;4954218;28;20043;-72
2023/12/11 03:15:24;;;;;;;56.38;6.68;;;9.40;99.90;;;;;;4937966;28;20414;-71
2023/12/11 03:17:49;;;;;;;54.90;6.45;;;8.70;99.90;;;;;;4953954;28;20421;-71
2023/12/11 03:20:15;;;;;;;55.33;6.55;;;8.80;99.90;;;;;;4953600;28;20073;-70
2023/12/11 03:22:41;;;;;;;51.05;5.63;;;8.90;99.90;;;;;;4938669;28;20355;-71
2023/12/11 03:25:07;;;;;;;57.92;6.13;;;8.80;99.90;;;;;;4937778;28;20094;-71
2023/12/11 03:27:33;;;;;;;58.75;6.63;;;9.20;99.90;;;;;;4954085;28;20227;-72
2023/12/11 03:29:59;;;;;;;48.53;6.05;;;9.70;99.90;;;;;;4953989;28;20035;-71
2023/12/11 03:32:25;;;;;;;55.22;6.78;;;9.70;99.90;;;;;;4938084;28;20046;-71
2023/12/11 03:34:51;;;;;;;54.35;7.13;;;9.50;99.90;;;;;;4953846;28;20464;-71
2023/12/11 03:37:17;;;;;;;50.15;6.63;;;9.30;99.90;;;;;;4938278;28;20043;-71
2023/12/11 03:39:42;;;;;;;50.72;6.25;;;9.10;99.90;;;;;;4937396;28;20050;-71
2023/12/11 03:42:09;;;;;;;63.35;7.38;;;8.80;99.90;;;;;;4938210;28;20035;-72
2023/12/11 03:44:35;;;;;;;52.13;6.45;;;8.90;99.90;;;;;;4953955;28;20331;-71
2023/12/11 03:47:00;;;;;;;57.22;7.07;;;8.80;99.90;;;;;;4953557;28;20511;-71
2023/12/11 03:49:27;;;;;;;65.32;7.78;;;9.20;99.90;;;;;;4931327;28;20050;-71
2023/12/11 03:51:53;;;;;;;50.78;6.10;;;9.70;99.90;;;;;;4938549;28;20046;-71
2023/12/11 03:54:19;;;;;;;53.10;6.07;;;9.80;99.90;;;;;;4954476;28;20046;-71
2023/12/11 03:56:44;;;;;;;65.75;7.10;;;9.50;99.90;;;;;;4952978;28;20061;-71
2023/12/11 03:59:11;;;;;;;57.17;7.00;;;9.30;99.90;;;;;;4921561;28;20047;-72
2023/12/11 04:01:37;;;;;;;56.55;7.20;;;9.80;99.90;;;;;;4953468;28;20078;-72
2023/12/11 04:04:03;;;;;;;65.60;7.53;;;8.90;99.90;;;;;;4953548;28;20047;-71
2023/12/11 04:06:29;;;;;;;70.75;8.32;;;9.50;99.90;;;;;;4937187;28;20057;-72
2023/12/11 04:08:55;;;;;;;64.90;6.63;;;8.80;99.90;;;;;;4937128;28;20153;-73
2023/12/11 04:11:20;;;;;;;58.45;7.32;;;8.80;99.90;;;;;;4931025;28;20050;-72
2023/12/11 04:13:46;;;;;;;62.58;7.30;;;8.80;99.90;;;;;;4952534;28;20046;-72
2023/12/11 04:16:12;;;;;;;64.45;7.93;;;9.20;99.90;;;;;;4953059;28;20105;-72
2023/12/11 04:18:38;;;;;;;78.72;8.27;;;8.80;99.90;;;;;;4952592;28;20620;-72
2023/12/11 04:21:05;;;;;;;69.35;8.57;;;8.90;99.90;;;;;;4953281;28;20326;-72
2023/12/11 04:23:30;;;;;;;68.40;8.57;;;9.60;99.90;;;;;;4953410;28;20069;-72
2023/12/11 04:26:00;;;;;;;62.60;7.20;;;9.30;99.90;;;;;;4937398;28;20449;-72
2023/12/11 04:28:28;;;;;;;55.90;7.53;;;9.80;99.90;;;;;;4936999;28;20401;-72
2023/12/11 04:30:54;;;;;;;64.07;7.05;;;9.70;99.90;;;;;;4937033;28;20121;-71
2023/12/11 04:33:21;;;;;;;59.22;7.55;;;9.60;99.90;;;;;;4937125;28;20043;-71
2023/12/11 04:35:46;;;;;;;63.47;8.70;;;9.00;99.90;;;;;;4953334;28;20854;-72
2023/12/11 04:38:13;;;;;;;61.25;7.47;;;9.90;99.90;;;;;;4939100;28;20049;-72
2023/12/11 04:40:38;;;;;;;59.30;7.47;;;9.60;99.90;;;;;;4952119;28;20379;-71
2023/12/11 04:43:04;;;;;;;57.72;6.45;;;9.20;99.90;;;;;;4968714;28;20276;-71
2023/12/11 04:45:30;;;;;;;69.40;7.45;;;9.20;99.90;;;;;;4952581;28;20854;-72
2023/12/11 04:47:57;;;;;;;74.85;8.43;;;10.00;99.90;;;;;;4952158;28;20478;-72
2023/12/11 04:50:22;;;;;;;68.65;7.57;;;10.00;99.90;;;;;;4937033;28;20551;-72
2023/12/11 04:52:48;;;;;;;61.95;7.30;;;9.70;99.90;;;;;;4936317;28;20085;-72
2023/12/11 04:55:14;;;;;;;56.28;7.57;;;9.20;99.90;;;;;;4952143;28;20085;-73
2023/12/11 04:57:40;;;;;;;59.80;7.72;;;9.30;99.90;;;;;;4936177;28;20130;-72
2023/12/11 05:00:07;;;;;;;53.97;6.57;;;9.20;99.90;;;;;;4936289;28;20309;-72
2023/12/11 05:02:33;;;;;;;55.33;6.03;;;9.10;99.90;;;;;;4929403;28;20042;-72
2023/12/11 05:04:58;;;;;;;56.63;7.22;;;9.90;99.90;;;;;;4936848;28;20344;-72
2023/12/11 05:07:24;;;;;;;66.07;8.15;;;9.70;99.90;;;;;;4936380;28;20047;-72
2023/12/11 05:09:50;;;;;;;54.08;7.22;;;9.70;99.90;;;;;;4933177;28;20278;-72
2023/12/11 05:12:16;;;;;;;56.33;6.75;;;9.20;99.90;;;;;;4951808;28;20074;-72
2023/12/11 05:14:42;;;;;;;49.88;6.32;;;9.10;99.90;;;;;;4935842;28;20819;-73
2023/12/11 05:17:07;;;;;;;56.08;6.43;;;9.10;99.90;;;;;;4935519;28;20054;-72
2023/12/11 05:19:35;;;;;;;70.55;8.32;;;9.30;99.90;;;;;;4952168;28;20039;-72
2023/12/11 05:22:01;;;;;;;61.88;6.65;;;9.30;99.90;;;;;;4951681;28;20533;-72
2023/12/11 05:24:27;;;;;;;52.45;6.68;;;9.20;99.90;;;;;;4951593;28;20537;-72
2023/12/11 05:26:56;;;;;;;53.33;6.18;;;9.70;99.90;;;;;;4952062;28;20050;-72
2023/12/11 05:29:22;;;;;;;46.92;6.80;;;9.70;99.90;;;;;;4951458;28;20110;-72
2023/12/11 05:31:48;;;;;;;58.67;6.50;;;9.00;99.90;;;;;;4936073;28;20054;-72
2023/12/11 05:34:14;;;;;;;53.22;7.22;;;9.00;99.90;;;;;;4936563;28;20323;-72
2023/12/11 05:36:40;;;;;;;58.80;6.70;;;9.40;99.90;;;;;;4935987;28;20303;-72
2023/12/11 05:39:06;;;;;;;64.70;6.88;;;9.40;99.90;;;;;;4919266;28;20134;-72
2023/12/11 05:41:33;;;;;;;55.58;6.78;;;9.20;99.90;;;;;;4919181;28;20043;-72
2023/12/11 05:43:59;;;;;;;54.10;7.32;;;9.70;99.90;;;;;;4951518;28;20316;-72
2023/12/11 05:46:25;;;;;;;60.15;6.80;;;9.70;99.90;;;;;;4934850;28;20116;-72
2023/12/11 05:48:51;;;;;;;55.08;6.80;;;9.70;99.90;;;;;;4951389;28;20043;-72
2023/12/11 05:51:17;;;;;;;49.95;6.40;;;9.20;99.90;;;;;;4935314;28;20039;-72
2023/12/11 05:53:42;;;;;;;54.53;5.85;;;9.20;99.90;;;;;;4935052;28;20043;-72
2023/12/11 05:56:09;;;;;;;56.83;6.88;;;9.60;99.90;;;;;;4950547;28;20754;-72
2023/12/11 05:58:35;;;;;;;58.35;6.95;;;9.70;99.90;;;;;;4950479;28;20065;-72
2023/12/11 06:01:01;;;;;;;60.80;6.35;;;9.80;99.90;;;;;;4934682;28;20043;-72
2023/12/11 06:03:26;;;;;;;61.25;7.20;;;9.00;99.90;;;;;;4919301;28;20042;-72
2023/12/11 06:05:57;;;;;;;55.72;7.13;;;9.70;99.90;;;;;;4935771;28;20730;-72
2023/12/11 06:08:24;;;;;;;52.22;6.45;;;9.70;99.90;;;;;;4919898;28;20401;-72
2023/12/11 06:10:50;;;;;;;60.05;6.45;;;9.20;99.90;;;;;;4935106;28;20113;-72
2023/12/11 06:13:16;;;;;;;61.40;6.75;;;9.40;99.90;;;;;;4951118;28;20026;-72
2023/12/11 06:15:42;;;;;;;49.55;5.63;;;9.00;99.90;;;;;;4950697;28;20545;-72
2023/12/11 06:18:08;;;;;;;54.83;6.05;;;9.70;99.90;;;;;;4951004;28;20699;-73
2023/12/11 06:20:34;;;;;;;58.13;6.95;;;9.60;99.90;;;;;;4950507;28;20053;-73
2023/12/11 06:22:59;;;;;;;56.22;6.35;;;9.10;99.90;;;;;;4918824;28;20168;-73
2023/12/11 06:25:25;;;;;;;48.67;5.72;;;9.00;99.90;;;;;;4950613;28;20038;-73
2023/12/11 06:27:51;;;;;;;59.67;7.68;;;9.00;99.90;;;;;;4934745;28;20720;-72
2023/12/11 06:30:17;;;;;;;53.58;6.70;;;9.80;99.90;;;;;;4918493;28;20126;-72
2023/12/11 06:32:43;;;;;;;57.92;6.32;;;9.60;99.90;;;;;;4950751;28;20130;-72
2023/12/11 06:35:08;;;;;;;47.00;6.40;;;8.90;99.90;;;;;;4918735;28;20187;-72
2023/12/11 06:37:34;;;;;;;44.53;5.40;;;9.60;99.90;;;;;;4934295;28;20045;-72
2023/12/11 06:40:00;;;;;;;52.42;6.55;;;9.60;99.90;;;;;;4933662;28;20081;-72
2023/12/11 06:42:26;;;;;;;57.00;5.70;;;9.70;99.90;;;;;;4934039;28;20097;-72
2023/12/11 06:44:53;;;;;;;55.08;6.30;;;9.60;99.90;;;;;;4934744;28;20574;-72
2023/12/11 06:47:19;;;;;;;52.25;5.93;;;8.80;99.90;;;;;;4950220;28;20046;-72
2023/12/11 06:49:46;;;;;;;38.25;4.30;;;9.60;99.90;;;;;;4950913;28;20098;-72
2023/12/11 06:52:13;;;;;;;47.70;6.03;;;9.00;99.90;;;;;;4934197;28;20054;-72
2023/12/11 06:54:39;;;;;;;47.42;5.82;;;9.20;99.90;;;;;;4934461;28;20536;-72
2023/12/11 06:57:04;;;;;;;44.30;5.45;;;9.00;99.90;;;;;;4933847;28;20047;-72
2023/12/11 06:59:30;;;;;;;60.58;6.13;;;9.70;99.90;;;;;;4950065;28;20073;-72
2023/12/11 07:01:56;;;;;;;47.75;5.50;;;9.10;99.90;;;;;;4918207;28;20034;-72
2023/12/11 07:04:21;;;;;;;48.30;5.85;;;9.00;99.90;;;;;;4902001;28;20043;-72
2023/12/11 07:06:47;;;;;;;52.95;6.68;;;9.70;99.90;;;;;;4934630;28;20050;-72
2023/12/11 07:09:13;;;;;;;49.40;4.97;;;9.00;99.90;;;;;;4919629;28;20330;-72
2023/12/11 07:11:39;;;;;;;42.13;5.15;;;9.80;99.90;;;;;;4950848;28;20117;-72
2023/12/11 07:14:06;;;;;;;44.55;5.28;;;9.10;99.90;;;;;;4934709;28;20042;-72
2023/12/11 07:16:35;;;;;;;42.97;5.78;;;9.00;99.90;;;;;;4919184;28;20043;-72
2023/12/11 07:19:03;;;;;;;40.30;5.35;;;9.10;99.90;;;;;;4935188;28;20059;-71
2023/12/11 07:21:29;;;;;;;43.78;4.70;;;9.70;99.90;;;;;;4921015;28;20049;-71
2023/12/11 07:23:55;;;;;;;43.42;4.95;;;9.70;99.90;;;;;;4933675;28;20047;-71
2023/12/11 07:26:21;;;;;;;31.55;3.63;;;9.50;99.90;;;;;;4903133;28;20382;-72
2023/12/11 07:28:46;;;;;;;39.08;4.47;;;9.60;99.90;;;;;;4933919;28;20086;-71
2023/12/11 07:31:13;;;;;;;49.38;5.18;;;9.50;99.90;;;;;;4950216;28;20058;-71
2023/12/11 07:33:39;;;;;;;46.00;4.75;;;9.00;99.90;;;;;;4933569;28;20101;-71
2023/12/11 07:36:05;;;;;;;38.50;4.45;;;9.40;99.90;;;;;;4929429;28;20039;-72
2023/12/11 07:38:31;;;;;;;45.08;5.03;;;9.70;99.90;;;;;;4932506;28;20204;-72
2023/12/11 07:40:57;;;;;;;50.38;5.57;;;8.80;99.90;;;;;;4933207;28;20465;-72
2023/12/11 07:43:23;;;;;;;51.40;5.60;;;9.60;99.90;;;;;;4949093;28;20039;-72
2023/12/11 07:45:49;;;;;;;51.00;5.40;;;8.70;99.90;;;;;;4919687;28;20505;-72
2023/12/11 07:48:15;;;;;;;53.22;6.13;;;8.70;99.90;;;;;;4953578;28;20284;-72
2023/12/11 07:50:41;;;;;;;45.40;4.65;;;9.70;99.90;;;;;;4937525;28;20052;-72
2023/12/11 07:53:06;;;;;;;51.53;5.82;;;8.70;99.90;;;;;;4936304;28;20110;-72
2023/12/11 07:55:35;;;;;;;47.63;5.05;;;9.70;99.90;;;;;;4936006;28;20433;-72
2023/12/11 07:58:02;;;;;;;47.15;4.82;;;9.60;99.90;;;;;;4953693;28;20279;-71
2023/12/11 08:00:28;;;;;;;39.28;4.47;;;9.10;99.90;;;;;;4937764;28;20053;-72
2023/12/11 08:02:54;;;;;;;39.63;5.80;;;8.90;99.90;;;;;;4937719;28;20043;-73
2023/12/11 08:05:20;;;;;;;43.58;5.70;;;8.70;99.90;;;;;;4936903;28;20042;-72
2023/12/11 08:07:46;;;;;;;43.75;5.15;;;9.50;99.90;;;;;;4952137;28;20077;-72
2023/12/11 08:10:12;;;;;;;41.30;4.93;;;9.10;99.90;;;;;;4920927;28;20034;-72
2023/12/11 08:12:37;;;;;;;39.97;4.25;;;9.40;99.90;;;;;;4936635;28;20128;-72
2023/12/11 08:15:04;;;;;;;33.38;3.88;;;9.40;99.90;;;;;;4919848;28;20034;-71
2023/12/11 08:17:29;;;;;;;40.70;3.95;;;8.70;99.90;;;;;;4952382;28;20310;-71
2023/12/11 08:19:55;;;;;;;27.38;3.25;;;9.60;99.90;;;;;;4952930;28;20501;-72
2023/12/11 08:22:21;;;;;;;37.10;3.83;;;9.50;99.90;;;;;;4940836;28;20058;-72
2023/12/11 08:24:47;;;;;;;32.75;3.80;;;8.90;99.90;;;;;;4956804;28;20057;-72
2023/12/11 08:27:14;;;;;;;28.95;3.65;;;9.80;99.90;;;;;;4938503;28;20366;-71
2023/12/11 08:29:40;;;;;;;38.80;4.40;;;8.80;99.90;;;;;;4938292;28;20367;-71
2023/12/11 08:32:06;;;;;;;35.72;3.72;;;9.80;99.90;;;;;;4938462;28;20143;-71
2023/12/11 08:34:32;;;;;;;41.55;4.10;;;8.90;99.90;;;;;;4937485;28;20046;-71
2023/12/11 08:36:58;;;;;;;40.47;3.35;;;9.80;99.90;;;;;;4953653;28;20061;-71
2023/12/11 08:39:23;;;;;;;31.85;3.70;;;9.10;99.90;;;;;;4937176;28;20077;-72
2023/12/11 08:41:50;;;;;;;29.65;3.15;;;9.30;99.90;;;;;;4937570;28;20042;-71
2023/12/11 08:44:16;;;;;;;34.22;3.50;;;8.80;99.90;;;;;;4954040;28;20369;-71
2023/12/11 08:46:43;;;;;;;33.97;3.72;;;8.70;99.90;;;;;;4954083;28;20074;-71
2023/12/11 08:49:10;;;;;;;36.17;3.97;;;9.60;99.90;;;;;;4953546;28;20059;-71
2023/12/11 08:51:36;;;;;;;37.15;4.13;;;9.70;99.90;;;;;;4953683;28;20055;-71
2023/12/11 08:54:02;;;;;;;34.97;3.90;;;8.70;99.90;;;;;;4953883;28;20533;-72
2023/12/11 08:56:28;;;;;;;34.28;3.47;;;8.70;99.90;;;;;;4953452;28;20310;-71
2023/12/11 08:58:53;;;;;;;29.90;3.17;;;8.90;99.90;;;;;;4953819;28;20295;-71
2023/12/11 09:01:19;;;;;;;35.83;3.55;;;9.50;99.90;;;;;;4953792;28;20365;-71
2023/12/11 09:03:45;;;;;;;25.67;2.80;;;9.80;99.90;;;;;;4953575;28;20469;-71
2023/12/11 09:06:13;;;;;;;33.03;3.38;;;9.40;99.90;;;;;;4937392;28;20050;-71
2023/12/11 09:08:39;;;;;;;28.25;3.28;;;9.80;99.90;;;;;;4953632;28;20503;-71
2023/12/11 09:11:05;;;;;;;32.10;3.13;;;8.90;99.90;;;;;;4937206;28;20051;-71
2023/12/11 09:13:31;;;;;;;29.75;3.33;;;9.80;99.90;;;;;;4937052;28;20119;-72
2023/12/11 09:15:56;;;;;;;30.80;2.90;;;9.60;99.90;;;;;;4936791;28;20273;-71
2023/12/11 09:18:22;;;;;;;26.38;3.28;;;9.20;99.90;;;;;;4951725;28;20049;-72
2023/12/11 09:20:48;;;;;;;28.83;3.83;;;10.10;99.90;;;;;;4935788;28;20077;-71
2023/12/11 09:23:14;;;;;;;28.10;3.53;;;9.90;99.90;;;;;;4950889;28;20039;-71
2023/12/11 09:25:40;;;;;;;22.60;3.35;;;9.10;99.90;;;;;;4951042;28;20098;-72
2023/12/11 09:28:06;;;;;;;26.00;3.58;;;10.10;99.90;;;;;;4950368;28;20046;-72
2023/12/11 09:30:32;;;;;;;25.85;3.70;;;10.10;99.90;;;;;;4935297;28;20134;-72
2023/12/11 09:32:58;;;;;;;18.75;2.95;;;9.40;99.90;;;;;;4934108;28;20489;-73
2023/12/11 09:35:24;;;;;;;22.17;3.60;;;9.30;99.90;;;;;;4935472;28;20042;-72
2023/12/11 09:37:49;;;;;;;19.48;3.63;;;10.00;99.90;;;;;;4934701;28;20097;-71
2023/12/11 09:40:15;;;;;;;27.10;4.53;;;9.60;99.90;;;;;;4950731;28;20402;-71
2023/12/11 09:42:43;;;;;;;26.55;5.30;;;9.00;99.90;;;;;;4935059;28;20046;-71
2023/12/11 09:45:11;;;;;;;22.40;4.53;;;9.30;99.90;;;;;;4951736;28;20034;-71
2023/12/11 09:47:44;;;;;;;25.45;5.70;;;10.10;99.90;;;;;;4952760;28;20073;-72
2023/12/11 09:50:13;;;;;;;26.90;4.82;;;10.00;99.90;;;;;;4952558;28;20118;-71
2023/12/11 09:52:42;;;;;;;19.95;4.20;;;9.10;99.90;;;;;;4940897;28;20367;-71
2023/12/11 09:55:09;;;;;;;23.95;4.95;;;10.10;99.90;;;;;;4921519;28;20350;-71
2023/12/11 09:57:41;;;;;;;21.85;5.07;;;9.10;99.90;;;;;;4951146;28;20457;-71
2023/12/11 10:00:11;;;;;;;21.88;4.53;;;10.20;99.90;;;;;;4935930;28;20049;-71
2023/12/11 10:02:40;;;;;;;26.33;5.05;;;9.40;99.90;;;;;;4904141;28;20093;-71
2023/12/11 10:05:11;;;;;;;18.98;4.47;;;9.00;99.90;;;;;;4950998;28;20496;-71
2023/12/11 10:07:40;;;;;;;24.73;4.72;;;9.00;99.90;;;;;;4927434;28;20047;-70
2023/12/11 10:10:19;;;;;;;28.77;5.18;;;9.60;99.90;;;;;;4951022;28;20046;-71
2023/12/11 10:12:46;;;;;;;30.75;4.90;;;9.70;99.90;;;;;;4983169;28;20047;-70
2023/12/11 10:15:17;;;;;;;30.40;5.85;;;10.20;99.90;;;;;;4950771;28;20240;-71
2023/12/11 10:17:43;;;;;;;33.78;6.13;;;9.10;99.90;;;;;;4951237;28;20145;-71
2023/12/11 10:20:18;;;;;;;28.58;4.90;;;9.40;99.90;;;;;;4934831;28;20047;-71
2023/12/11 10:22:44;;;;;;;32.00;4.47;;;9.70;99.90;;;;;;4937410;28;20043;-71
2023/12/11 10:25:10;;;;;;;38.85;4.95;;;10.20;99.90;;;;;;4950622;28;20038;-70
2023/12/11 10:27:36;;;;;;;30.02;5.63;;;9.60;99.90;;;;;;4935444;28;20117;-71
2023/12/11 10:30:12;;;;;;;34.80;4.65;;;10.30;99.90;;;;;;4951434;28;20376;-71
2023/12/11 10:32:39;;;;;;;37.95;5.15;;;10.00;99.90;;;;;;4934869;28;20065;-71
2023/12/11 10:35:06;;;;;;;25.35;3.78;;;9.50;99.90;;;;;;4935713;28;20050;-71
2023/12/11 10:37:34;;;;;;;32.28;3.88;;;10.40;99.90;;;;;;4935979;28;20502;-71
2023/12/11 10:40:02;;;;;;;36.00;4.63;;;9.50;99.90;;;;;;4933930;28;20038;-70
2023/12/11 10:42:28;;;;;;;31.15;3.90;;;9.80;99.90;;;;;;4927750;28;20325;-71
2023/12/11 10:44:55;;;;;;;27.90;3.30;;;9.50;99.90;;;;;;4918101;28;20650;-70
2023/12/11 10:47:22;;;;;;;32.70;3.92;;;9.50;99.90;;;;;;4933562;28;20074;-71
2023/12/11 10:49:48;;;;;;;34.13;3.88;;;10.60;99.90;;;;;;4917680;28;20042;-71
2023/12/11 10:52:16;;;;;;;26.17;2.75;;;10.40;99.90;;;;;;4933646;28;20054;-71
2023/12/11 10:54:42;;;;;;;25.88;2.35;;;10.60;99.90;;;;;;4949889;28;20046;-71
2023/12/11 10:57:17;;;;;;;31.85;2.58;;;9.70;99.90;;;;;;4949779;28;20442;-72
2023/12/11 10:59:44;;;;;;;30.58;2.83;;;10.40;99.90;;;;;;4981560;28;20243;-71
2023/12/11 11:02:14;;;;;;;27.38;2.58;;;10.70;99.90;;;;;;4933692;28;20716;-70
2023/12/11 11:04:42;;;;;;;26.60;2.80;;;10.70;99.90;;;;;;4921516;28;20078;-71
2023/12/11 11:07:21;;;;;;;28.08;2.40;;;9.90;99.90;;;;;;4933472;28;20039;-71
2023/12/11 11:09:52;;;;;;;25.45;2.80;;;10.90;99.90;;;;;;4950197;28;20116;-71
2023/12/11 11:12:42;;;;;;;23.58;2.35;;;10.50;99.90;;;;;;4942240;28;20051;-71
2023/12/11 11:15:10;;;;;;;28.02;2.47;;;10.00;99.90;;;;;;4949666;28;20595;-71
2023/12/11 11:18:09;;;;;;;30.33;2.78;;;10.80;99.90;;;;;;4917443;28;20559;-72
2023/12/11 11:20:39;;;;;;;24.10;2.55;;;10.00;99.90;;;;;;4936419;28;20187;-71
2023/12/11 11:23:17;;;;;;;27.92;2.97;;;10.60;99.90;;;;;;4921860;28;20030;-72
2023/12/11 11:25:51;;;;;;;33.45;3.60;;;9.80;99.90;;;;;;4953023;28;20113;-72
2023/12/11 11:28:35;;;;;;;38.67;3.72;;;10.20;99.90;;;;;;4953453;28;20046;-72
2023/12/11 11:31:01;;;;;;;34.80;4.28;;;9.90;99.90;;;;;;4953195;28;20039;-72
2023/12/11 11:33:49;;;;;;;29.73;3.25;;;10.20;99.90;;;;;;4952595;28;20131;-72
2023/12/11 11:36:17;;;;;;;29.55;3.17;;;10.20;99.90;;;;;;4952421;28;20051;-72
2023/12/11 11:38:58;;;;;;;34.22;3.95;;;9.80;99.90;;;;;;4952206;28;20207;-72
2023/12/11 11:41:25;;;;;;;28.45;2.72;;;10.60;99.90;;;;;;4936452;28;20038;-71
2023/12/11 11:44:09;;;;;;;33.40;3.42;;;10.30;99.90;;;;;;4935886;28;20260;-72
2023/12/11 11:46:52;;;;;;;29.65;3.10;;;10.00;99.90;;;;;;4953701;28;20046;-72
2023/12/11 11:49:28;;;;;;;27.10;2.38;;;10.40;99.90;;;;;;4924709;28;20125;-71
2023/12/11 11:51:54;;;;;;;29.33;2.55;;;10.40;99.90;;;;;;4937602;28;20611;-72
2023/12/11 11:54:24;;;;;;;31.20;2.72;;;9.70;99.90;;;;;;4953636;28;20536;-72
2023/12/11 11:56:51;;;;;;;30.83;3.05;;;9.60;99.90;;;;;;4953526;28;20058;-72
2023/12/11 11:59:17;;;;;;;27.45;2.40;;;9.60;99.90;;;;;;4937324;28;20516;-72
2023/12/11 12:01:52;;;;;;;21.15;2.08;;;10.50;99.90;;;;;;4953614;28;20077;-72
2023/12/11 12:04:33;;;;;;;19.15;1.58;;;10.30;99.90;;;;;;4937371;28;20046;-72
2023/12/11 12:07:05;;;;;;;26.65;2.22;;;10.50;99.90;;;;;;4953685;28;20597;-72
2023/12/11 12:09:33;;;;;;;19.90;1.75;;;10.00;99.90;;;;;;4924555;28;20315;-72
2023/12/11 12:12:00;;;;;;;17.90;1.40;;;9.80;99.90;;;;;;4952250;28;20035;-72
2023/12/11 12:14:26;;;;;;;19.70;1.45;;;9.70;99.90;;;;;;4937114;28;20239;-72
2023/12/11 12:16:55;;;;;;;21.48;2.35;;;9.60;99.90;;;;;;4936584;28;20414;-72
2023/12/11 12:19:31;;;;;;;14.43;1.17;;;9.70;99.90;;;;;;4953458;28;20046;-72
2023/12/11 12:21:58;;;;;;;16.20;1.90;;;9.70;99.90;;;;;;4937710;28;20042;-73
2023/12/11 12:24:26;;;;;;;12.50;0.95;;;9.50;99.90;;;;;;4920800;28;20704;-72
2023/12/11 12:26:55;;;;;;;17.67;1.20;;;10.00;99.90;;;;;;4934805;28;20481;-72
2023/12/11 12:29:21;;;;;;;19.48;1.35;;;9.90;99.90;;;;;;4936438;28;20126;-72
2023/12/11 12:31:48;;;;;;;20.65;1.80;;;9.50;99.90;;;;;;4938086;28;20402;-72
2023/12/11 12:34:17;;;;;;;17.15;1.20;;;9.20;99.90;;;;;;4954173;28;20061;-72
2023/12/11 12:36:44;;;;;;;17.80;1.38;;;9.90;99.90;;;;;;4937685;28;20042;-72
2023/12/11 12:39:17;;;;;;;20.65;1.58;;;9.80;99.90;;;;;;4938114;28;20105;-72
2023/12/11 12:41:43;;;;;;;14.85;1.20;;;9.10;99.90;;;;;;4954624;28;20042;-72
2023/12/11 12:44:09;;;;;;;14.25;1.10;;;9.80;99.90;;;;;;4938247;28;20694;-72